Time;durP1;ratioP1;P1;durP2;ratioP2;P2;SDS_P1;SDS_P2;PMS_P1;PMS_P2;Temp;Humidity;BMP_temperature;BMP_pressure;BME280_temperature;BME280_humidity;BME280_pressure;Samples;Min_cycle;Max_cycle;Signal;HPM_P1;HPM_P2
2021/11/17 02:27:53;;;;;;;42.53;23.23;;;7.50;99.90;;;;;;5012103;28;20089;-50
2021/11/17 02:30:40;;;;;;;32.65;22.98;;;7.50;99.90;;;;;;5012131;28;20033;-50
2021/11/17 02:33:28;;;;;;;33.05;23.45;;;7.50;99.90;;;;;;5012145;28;20553;-50
2021/11/17 02:36:16;;;;;;;36.25;24.73;;;7.40;99.90;;;;;;5011886;28;20036;-51
2021/11/17 02:39:10;;;;;;;36.95;24.73;;;7.40;99.90;;;;;;5009544;28;20045;-52
2021/11/17 02:41:43;;;;;;;33.50;23.15;;;7.30;99.90;;;;;;5012192;28;20110;-50
2021/11/17 02:44:15;;;;;;;37.17;24.95;;;7.30;99.90;;;;;;5015300;28;20037;-50
2021/11/17 02:46:59;;;;;;;35.67;24.00;;;7.30;99.90;;;;;;4980671;28;20049;-50
2021/11/17 02:49:31;;;;;;;39.30;25.02;;;7.20;99.90;;;;;;5015055;28;20498;-51
2021/11/17 02:51:57;;;;;;;61.97;34.42;;;7.20;99.90;;;;;;5015302;28;20515;-50
2021/11/17 02:54:38;;;;;;;77.28;35.00;;;7.30;99.90;;;;;;5015076;28;20053;-50
2021/11/17 02:57:30;;;;;;;57.63;31.42;;;7.30;99.90;;;;;;5015183;28;20064;-50
2021/11/17 03:00:13;;;;;;;57.70;28.20;;;7.30;99.90;;;;;;4997133;28;20382;-50
2021/11/17 03:02:56;;;;;;;51.05;26.90;;;7.20;99.90;;;;;;5014915;28;20088;-50
2021/11/17 03:05:43;;;;;;;33.17;22.75;;;7.20;99.90;;;;;;5014962;28;20050;-51
2021/11/17 03:08:47;;;;;;;33.75;23.25;;;7.30;99.90;;;;;;5014970;28;20447;-50
2021/11/17 03:11:25;;;;;;;32.25;21.35;;;7.30;99.90;;;;;;5014852;28;20033;-50
2021/11/17 03:14:28;;;;;;;32.60;21.45;;;7.30;99.90;;;;;;5014660;28;20026;-50
2021/11/17 03:17:12;;;;;;;31.27;21.73;;;7.20;99.90;;;;;;5014672;28;20038;-50
2021/11/17 03:19:56;;;;;;;30.45;21.00;;;7.20;99.90;;;;;;5001269;28;20386;-50
2021/11/17 03:22:25;;;;;;;30.98;20.83;;;7.20;99.90;;;;;;5034593;28;20044;-51
2021/11/17 03:25:29;;;;;;;34.42;22.02;;;7.10;99.90;;;;;;5034165;28;20122;-50
2021/11/17 03:28:20;;;;;;;30.95;19.75;;;7.10;99.90;;;;;;4953645;29;20043;-50
2021/11/17 03:31:10;;;;;;;31.63;20.80;;;7.10;99.90;;;;;;4953719;29;20041;-50
2021/11/17 03:33:57;;;;;;;30.55;20.77;;;7.10;99.90;;;;;;4953562;29;20468;-50
2021/11/17 03:36:33;;;;;;;31.23;20.80;;;7.10;99.90;;;;;;4953688;29;20535;-50
2021/11/17 03:39:19;;;;;;;32.28;20.05;;;7.00;99.90;;;;;;4953685;29;20051;-50
2021/11/17 03:42:25;;;;;;;33.90;20.95;;;7.00;99.90;;;;;;4953542;29;20039;-50
2021/11/17 03:44:56;;;;;;;33.97;21.63;;;6.90;99.90;;;;;;4880663;29;20142;-50
2021/11/17 03:47:34;;;;;;;31.70;20.98;;;7.00;99.90;;;;;;4896475;29;20048;-51
2021/11/17 03:50:08;;;;;;;31.67;19.30;;;7.00;99.90;;;;;;4896614;29;20037;-51
2021/11/17 03:52:55;;;;;;;33.03;21.00;;;6.90;99.90;;;;;;4896036;29;20108;-50
2021/11/17 03:55:36;;;;;;;31.52;20.38;;;7.00;99.90;;;;;;4902949;29;20576;-50
2021/11/17 03:58:36;;;;;;;34.00;20.47;;;7.00;99.90;;;;;;4915103;29;20052;-51
2021/11/17 04:01:22;;;;;;;32.30;20.67;;;6.90;99.90;;;;;;4900476;29;20048;-51
2021/11/17 04:04:22;;;;;;;31.08;20.55;;;6.80;99.90;;;;;;4877200;29;20120;-50
2021/11/17 04:07:24;;;;;;;33.35;21.88;;;6.90;99.90;;;;;;4933874;29;20039;-50
2021/11/17 04:10:27;;;;;;;36.33;24.33;;;6.90;99.90;;;;;;4933718;29;20075;-50
2021/11/17 04:13:06;;;;;;;;;;;6.90;99.90;;;;;;4902362;29;20087;-51
2021/11/17 04:16:00;;;;;;;42.15;26.95;;;6.90;99.90;;;;;;4933597;29;19917;-50
2021/11/17 04:18:43;;;;;;;39.03;23.30;;;6.90;99.90;;;;;;4933702;29;20123;-50
2021/11/17 04:21:43;;;;;;;57.33;31.83;;;6.90;99.90;;;;;;4913104;28;20055;-51
2021/11/17 04:24:25;;;;;;;56.53;34.67;;;6.90;99.90;;;;;;4956100;28;20034;-50
2021/11/17 04:27:27;;;;;;;42.33;28.90;;;6.80;99.90;;;;;;4971465;28;20035;-50
2021/11/17 04:29:56;;;;;;;42.22;28.38;;;6.80;99.90;;;;;;4942630;28;20480;-51
2021/11/17 04:32:43;;;;;;;30.95;22.58;;;6.80;99.90;;;;;;4971100;28;20038;-50
2021/11/17 04:35:17;;;;;;;35.92;28.40;;;6.70;99.90;;;;;;4971820;28;20121;-51
2021/11/17 04:38:15;;;;;;;33.40;22.58;;;6.80;99.90;;;;;;4971617;28;20034;-50
2021/11/17 04:40:51;;;;;;;32.75;20.77;;;6.70;99.90;;;;;;4988046;28;20094;-50
2021/11/17 04:43:26;;;;;;;30.80;19.90;;;6.70;99.90;;;;;;5021979;28;20036;-50
2021/11/17 04:46:14;;;;;;;30.48;20.23;;;6.60;99.90;;;;;;5032844;28;20083;-51
2021/11/17 04:49:15;;;;;;;32.67;19.58;;;6.60;99.90;;;;;;5032544;28;20029;-50
2021/11/17 04:51:50;;;;;;;30.42;19.83;;;6.50;99.90;;;;;;5032959;28;20041;-50
2021/11/17 04:54:37;;;;;;;29.73;19.90;;;6.40;99.90;;;;;;5014264;28;20124;-50
2021/11/17 04:57:21;;;;;;;33.38;21.88;;;6.40;99.90;;;;;;5014162;28;20049;-50
2021/11/17 05:00:05;;;;;;;29.05;18.05;;;6.50;99.90;;;;;;5032909;28;20448;-50
2021/11/17 05:03:06;;;;;;;29.02;19.00;;;6.40;99.90;;;;;;5031540;28;20080;-50
2021/11/17 05:05:51;;;;;;;30.05;20.65;;;6.40;99.90;;;;;;4951531;28;20040;-50
2021/11/17 05:08:22;;;;;;;32.95;19.88;;;6.40;99.90;;;;;;4955387;28;20043;-51
2021/11/17 05:10:48;;;;;;;33.22;20.35;;;6.40;99.90;;;;;;4958494;28;20059;-51
2021/11/17 05:13:20;;;;;;;29.35;20.65;;;6.40;99.90;;;;;;4959611;28;20475;-51
2021/11/17 05:16:07;;;;;;;31.85;19.58;;;6.50;99.90;;;;;;4964581;28;20115;-51
2021/11/17 05:18:35;;;;;;;37.35;22.02;;;6.60;99.90;;;;;;4966567;28;20074;-50
2021/11/17 05:21:04;;;;;;;36.45;21.85;;;6.60;99.90;;;;;;4958589;28;20055;-51
2021/11/17 05:23:50;;;;;;;37.70;22.90;;;6.50;99.90;;;;;;4957789;28;20376;-51
2021/11/17 05:26:34;;;;;;;38.92;21.30;;;6.60;99.90;;;;;;4962363;28;20027;-50
2021/11/17 05:29:07;;;;;;;36.90;22.08;;;6.60;99.90;;;;;;4965974;28;20030;-50
2021/11/17 05:31:45;;;;;;;33.03;20.92;;;6.60;99.90;;;;;;4953978;28;20037;-51
2021/11/17 05:34:29;;;;;;;43.30;25.45;;;6.70;99.90;;;;;;4970534;28;20037;-50
2021/11/17 05:36:58;;;;;;;50.97;24.23;;;6.70;99.90;;;;;;4926882;28;20074;-49
2021/11/17 05:39:45;;;;;;;42.83;24.02;;;6.60;99.90;;;;;;4970009;28;20034;-52
2021/11/17 05:42:44;;;;;;;52.97;26.40;;;6.60;99.90;;;;;;5006137;28;20037;-49
2021/11/17 05:45:16;;;;;;;189.63;61.95;;;6.50;99.90;;;;;;5023300;28;20121;-50
2021/11/17 05:47:54;;;;;;;;;;;6.60;99.90;;;;;;5021554;28;20497;-49
2021/11/17 05:50:42;;;;;;;179.27;33.20;;;6.60;99.90;;;;;;5012959;28;19909;-49
2021/11/17 05:53:15;;;;;;;261.20;32.30;;;6.60;99.90;;;;;;5031884;28;20488;-49
2021/11/17 05:56:15;;;;;;;175.57;30.42;;;6.60;99.90;;;;;;5032162;28;20029;-49
2021/11/17 05:58:57;;;;;;;46.75;26.55;;;6.50;99.90;;;;;;4956011;28;20603;-49
2021/11/17 06:01:43;;;;;;;49.85;29.23;;;6.50;99.90;;;;;;4950883;28;20038;-49
2021/11/17 06:04:11;;;;;;;52.95;31.65;;;6.60;99.90;;;;;;4950952;29;20035;-50
2021/11/17 06:06:38;;;;;;;59.20;30.05;;;6.70;99.90;;;;;;4951801;29;20036;-50
2021/11/17 06:09:06;;;;;;;63.33;35.15;;;6.80;99.90;;;;;;4951670;29;20504;-49
2021/11/17 06:11:40;;;;;;;45.70;27.10;;;6.90;99.90;;;;;;4951856;29;20400;-49
2021/11/17 06:14:08;;;;;;;39.70;26.40;;;6.90;99.90;;;;;;4951828;29;20053;-49
2021/11/17 06:16:47;;;;;;;185.77;27.40;;;7.20;99.90;;;;;;4937317;29;20043;-49
2021/11/17 06:19:16;;;;;;;31.67;23.85;;;7.70;99.90;;;;;;4956399;28;20028;-49
2021/11/17 06:21:43;;;;;;;34.90;26.48;;;7.90;99.90;;;;;;4974588;28;20043;-49
2021/11/17 06:24:11;;;;;;;39.55;27.65;;;8.00;99.90;;;;;;4952868;28;20038;-49
2021/11/17 06:26:39;;;;;;;54.72;35.13;;;8.50;99.90;;;;;;4973430;28;20035;-49
2021/11/17 06:29:11;;;;;;;58.88;35.28;;;8.00;99.90;;;;;;4973472;28;20081;-49
2021/11/17 06:31:39;;;;;;;46.10;27.42;;;6.90;99.90;;;;;;4974106;28;20507;-49
2021/11/17 06:34:23;;;;;;;36.25;24.25;;;6.20;99.90;;;;;;4973060;28;20085;-48
2021/11/17 06:36:49;;;;;;;39.08;26.02;;;5.50;99.90;;;;;;4978875;28;20041;-49
2021/11/17 06:39:15;;;;;;;35.83;23.30;;;5.40;99.90;;;;;;5033528;28;20035;-49
2021/11/17 06:41:41;;;;;;;38.88;23.48;;;5.50;99.90;;;;;;4999698;28;20034;-49
2021/11/17 06:44:06;;;;;;;37.03;24.52;;;5.50;99.90;;;;;;5002188;28;20049;-48
2021/11/17 06:46:32;;;;;;;38.05;27.20;;;5.40;99.90;;;;;;5033657;28;20044;-49
2021/11/17 06:48:58;;;;;;;68.07;38.58;;;5.80;99.90;;;;;;5033059;28;20034;-49
2021/11/17 06:51:24;;;;;;;72.13;42.25;;;6.60;99.90;;;;;;5033557;28;20021;-49
2021/11/17 06:53:49;;;;;;;88.85;49.10;;;7.10;99.90;;;;;;4996534;28;20061;-49
2021/11/17 06:56:17;;;;;;;74.22;40.45;;;8.00;99.90;;;;;;5033518;28;20071;-49
2021/11/17 06:58:43;;;;;;;124.72;68.88;;;8.70;99.90;;;;;;5033658;28;20125;-51
2021/11/17 07:01:08;;;;;;;125.80;64.40;;;8.70;99.90;;;;;;5032999;28;20104;-50
2021/11/17 07:03:34;;;;;;;164.93;88.53;;;8.70;99.90;;;;;;5033245;28;20111;-49
2021/11/17 07:06:00;;;;;;;57.65;36.97;;;8.60;99.90;;;;;;5033181;28;20017;-49
2021/11/17 07:08:26;;;;;;;39.42;26.73;;;8.00;99.90;;;;;;5033207;28;20037;-49
2021/11/17 07:10:51;;;;;;;34.40;23.67;;;7.60;99.90;;;;;;5015090;28;20037;-49
2021/11/17 07:13:18;;;;;;;38.95;27.33;;;6.90;99.90;;;;;;4992669;28;20148;-50
2021/11/17 07:15:44;;;;;;;42.80;27.40;;;6.20;99.90;;;;;;4992430;28;20038;-49
2021/11/17 07:18:10;;;;;;;38.45;27.85;;;5.80;99.90;;;;;;4960009;28;20069;-50
2021/11/17 07:20:37;;;;;;;39.47;25.60;;;5.70;99.90;;;;;;4986880;28;20488;-49
2021/11/17 07:23:04;;;;;;;44.47;29.90;;;5.90;99.90;;;;;;4990026;28;20044;-51
2021/11/17 07:25:30;;;;;;;40.03;28.38;;;6.10;99.90;;;;;;4989872;28;20088;-52
2021/11/17 07:27:57;;;;;;;46.00;32.50;;;6.80;99.90;;;;;;4989612;28;20042;-51
2021/11/17 07:30:26;;;;;;;46.65;34.28;;;7.00;99.90;;;;;;4991110;28;20459;-51
2021/11/17 07:32:53;;;;;;;39.15;26.42;;;7.10;99.90;;;;;;4970825;28;20046;-51
2021/11/17 07:35:22;;;;;;;45.83;29.60;;;6.70;99.90;;;;;;4991173;28;20038;-51
2021/11/17 07:37:48;;;;;;;42.70;28.55;;;6.40;99.90;;;;;;4990437;28;20066;-51
2021/11/17 07:40:15;;;;;;;38.90;27.13;;;6.40;99.90;;;;;;4955178;28;20070;-51
2021/11/17 07:42:41;;;;;;;44.25;28.08;;;6.50;99.90;;;;;;4990785;28;20026;-51
2021/11/17 07:45:09;;;;;;;57.58;41.05;;;6.40;99.90;;;;;;4989633;28;20885;-51
2021/11/17 07:47:35;;;;;;;52.38;37.50;;;6.60;99.90;;;;;;5027934;28;20033;-51
2021/11/17 07:50:02;;;;;;;39.22;25.98;;;6.80;99.90;;;;;;5011062;28;20393;-52
2021/11/17 07:52:28;;;;;;;36.28;25.83;;;7.20;99.90;;;;;;5025363;28;20473;-53
2021/11/17 07:54:54;;;;;;;40.08;29.05;;;7.40;99.90;;;;;;5027928;28;20133;-51
2021/11/17 07:57:20;;;;;;;37.38;26.33;;;7.70;99.90;;;;;;5025770;28;20410;-51
2021/11/17 07:59:46;;;;;;;41.20;28.77;;;7.90;99.90;;;;;;5026273;28;20036;-50
2021/11/17 08:02:14;;;;;;;37.35;25.10;;;7.90;99.90;;;;;;5007556;28;20147;-50
2021/11/17 08:04:41;;;;;;;40.45;25.45;;;7.70;99.90;;;;;;5028844;28;20458;-50
2021/11/17 08:07:20;;;;;;;38.67;28.08;;;7.70;99.90;;;;;;5029915;28;20608;-50
2021/11/17 08:09:49;;;;;;;39.80;25.60;;;7.80;99.90;;;;;;5018665;28;20061;-53
2021/11/17 08:12:15;;;;;;;46.15;31.33;;;7.70;99.90;;;;;;4979549;28;20335;-52
2021/11/17 08:14:41;;;;;;;41.17;28.20;;;7.80;99.90;;;;;;4977605;28;20069;-53
2021/11/17 08:17:06;;;;;;;39.53;26.90;;;7.50;99.90;;;;;;5023704;28;20066;-53
2021/11/17 08:19:33;;;;;;;38.78;27.27;;;8.00;99.90;;;;;;4981154;28;20486;-52
2021/11/17 08:22:05;;;;;;;41.42;31.55;;;8.50;99.90;;;;;;5028078;28;20040;-53
2021/11/17 08:24:31;;;;;;;37.13;28.20;;;9.00;99.90;;;;;;5032216;28;20388;-52
2021/11/17 08:26:57;;;;;;;38.47;26.65;;;9.50;99.90;;;;;;5031825;28;20440;-52
2021/11/17 08:29:23;;;;;;;37.42;26.50;;;9.90;99.90;;;;;;5031493;28;20026;-52
2021/11/17 08:31:49;;;;;;;45.90;31.52;;;10.40;99.90;;;;;;5014943;28;20057;-51
2021/11/17 08:34:14;;;;;;;53.70;35.30;;;10.70;99.90;;;;;;5013114;28;20076;-52
2021/11/17 08:36:40;;;;;;;44.65;32.35;;;11.30;99.90;;;;;;5032037;28;20056;-53
2021/11/17 08:39:06;;;;;;;60.03;38.60;;;11.70;99.90;;;;;;5030457;28;20029;-51
2021/11/17 08:41:32;;;;;;;54.60;37.75;;;11.80;99.90;;;;;;5031417;28;20029;-53
2021/11/17 08:43:58;;;;;;;57.72;35.92;;;11.60;99.90;;;;;;5031025;28;20473;-54
2021/11/17 08:46:24;;;;;;;67.90;42.17;;;11.80;99.90;;;;;;4997282;28;20041;-52
2021/11/17 08:48:51;;;;;;;62.67;40.95;;;12.20;99.90;;;;;;5008150;28;20177;-52
2021/11/17 08:51:19;;;;;;;65.80;38.50;;;11.90;99.90;;;;;;4990821;28;20056;-52
2021/11/17 08:53:49;;;;;;;55.58;34.50;;;11.70;99.90;;;;;;5007988;28;20042;-51
2021/11/17 08:56:15;;;;;;;58.65;36.88;;;12.00;99.90;;;;;;5008356;28;20025;-52
2021/11/17 08:58:45;;;;;;;57.00;34.05;;;11.90;99.90;;;;;;5006362;28;20499;-51
2021/11/17 09:01:12;;;;;;;53.85;32.00;;;11.90;99.90;;;;;;5006229;28;20034;-52
2021/11/17 09:03:38;;;;;;;57.45;36.03;;;11.50;99.90;;;;;;5006130;28;20072;-52
2021/11/17 09:06:07;;;;;;;55.47;35.42;;;12.20;99.90;;;;;;5008985;28;20563;-53
2021/11/17 09:08:33;;;;;;;55.95;35.50;;;13.10;99.90;;;;;;5008163;28;20045;-52
2021/11/17 09:11:03;;;;;;;57.90;35.83;;;13.30;99.90;;;;;;5008988;28;20497;-54
2021/11/17 09:13:29;;;;;;;58.33;35.97;;;12.90;99.90;;;;;;4976375;28;20042;-52
2021/11/17 09:15:57;;;;;;;62.65;38.10;;;12.50;99.90;;;;;;5007686;28;20041;-52
2021/11/17 09:18:27;;;;;;;64.45;37.85;;;12.10;99.90;;;;;;5007145;28;20044;-52
2021/11/17 09:20:54;;;;;;;63.17;39.47;;;11.90;99.90;;;;;;5036655;28;20592;-53
2021/11/17 09:23:21;;;;;;;63.88;38.15;;;12.10;99.90;;;;;;5031461;28;20068;-53
2021/11/17 09:25:47;;;;;;;64.22;39.15;;;11.50;99.90;;;;;;5031307;28;20040;-53
2021/11/17 09:28:13;;;;;;;59.00;37.90;;;11.50;99.90;;;;;;4996430;28;20092;-52
2021/11/17 09:30:40;;;;;;;63.28;41.38;;;11.10;99.90;;;;;;5031598;28;20025;-52
2021/11/17 09:33:08;;;;;;;64.22;40.00;;;10.80;99.90;;;;;;5031025;28;20030;-51
2021/11/17 09:35:35;;;;;;;64.47;40.28;;;10.80;99.90;;;;;;5029408;28;20036;-52
2021/11/17 09:38:04;;;;;;;62.85;39.90;;;10.60;99.90;;;;;;5022074;28;20471;-52
2021/11/17 09:40:46;;;;;;;62.85;39.65;;;10.70;99.90;;;;;;5018142;28;20033;-53
2021/11/17 09:43:15;;;;;;;61.80;36.90;;;10.60;99.90;;;;;;4975830;28;20048;-51
2021/11/17 09:45:42;;;;;;;62.58;38.45;;;10.30;99.90;;;;;;4978951;28;20178;-51
2021/11/17 09:48:13;;;;;;;74.53;43.97;;;10.10;99.90;;;;;;4988881;28;20038;-52
2021/11/17 09:50:44;;;;;;;59.25;38.10;;;10.60;99.90;;;;;;4989927;28;20046;-51
2021/11/17 09:53:35;;;;;;;58.42;38.80;;;11.10;99.90;;;;;;4986787;28;20027;-51
2021/11/17 09:56:09;;;;;;;68.00;40.80;;;11.50;99.90;;;;;;4990827;28;20042;-52
2021/11/17 09:58:43;;;;;;;66.45;38.90;;;10.90;99.90;;;;;;4993228;28;20130;-51
2021/11/17 10:01:18;;;;;;;68.40;42.47;;;10.80;99.90;;;;;;4989348;28;20554;-52
2021/11/17 10:03:48;;;;;;;127.20;69.53;;;10.50;99.90;;;;;;4993399;28;20023;-53
2021/11/17 10:15:01;;;;;;;66.75;38.80;;;11.30;99.90;;;;;;4993181;28;20509;-51
2021/11/17 10:17:48;;;;;;;67.80;40.33;;;10.80;99.90;;;;;;5025481;28;20061;-51
2021/11/17 10:20:36;;;;;;;68.45;41.42;;;11.00;99.90;;;;;;5034660;28;20555;-52
2021/11/17 10:23:16;;;;;;;78.55;44.60;;;11.90;99.90;;;;;;4999530;28;20045;-51
2021/11/17 10:26:02;;;;;;;79.03;43.58;;;12.80;99.90;;;;;;5024223;28;20033;-51
2021/11/17 10:28:53;;;;;;;75.20;42.53;;;12.70;99.90;;;;;;5025798;28;20018;-51
2021/11/17 10:31:27;;;;;;;67.88;43.25;;;12.50;99.90;;;;;;5022335;28;20105;-52
2021/11/17 10:34:18;;;;;;;65.43;40.63;;;13.30;99.90;;;;;;5012978;28;20033;-52
2021/11/17 10:36:46;;;;;;;69.88;43.75;;;13.50;99.90;;;;;;5023016;28;20037;-52
2021/11/17 10:39:17;;;;;;;71.35;42.72;;;;;;;;;;5023983;28;20026;-52
2021/11/17 10:42:03;;;;;;;65.38;41.10;;;14.60;99.90;;;;;;5024371;28;20032;-53
2021/11/17 10:44:41;;;;;;;72.32;44.50;;;14.20;99.90;;;;;;5004990;28;20029;-52
2021/11/17 10:47:27;;;;;;;64.97;42.85;;;14.00;99.90;;;;;;4964796;28;20041;-52
2021/11/17 10:50:08;;;;;;;75.93;46.03;;;13.90;99.90;;;;;;5015368;28;20033;-53
2021/11/17 10:52:48;;;;;;;69.78;42.88;;;14.70;99.90;;;;;;5021472;28;20056;-52
2021/11/17 10:55:17;;;;;;;68.43;42.35;;;14.40;99.90;;;;;;4999701;28;20151;-51
2021/11/17 10:57:42;;;;;;;68.68;43.25;;;14.10;99.90;;;;;;5034591;28;20043;-51
2021/11/17 11:00:12;;;;;;;69.05;44.80;;;14.10;99.90;;;;;;4983340;28;20400;-51
2021/11/17 11:02:41;;;;;;;68.90;42.00;;;14.30;99.90;;;;;;4974932;28;20042;-51
2021/11/17 11:05:15;;;;;;;68.70;45.25;;;14.20;99.90;;;;;;4992138;28;20116;-52
2021/11/17 11:07:45;;;;;;;72.22;48.55;;;14.60;99.90;;;;;;4992399;28;20038;-51
2021/11/17 11:10:20;;;;;;;68.82;44.83;;;14.70;99.90;;;;;;4992650;28;20026;-51
2021/11/17 11:12:47;;;;;;;72.05;48.25;;;;;;;;;;4992572;28;20026;-51
2021/11/17 11:15:27;;;;;;;71.20;45.58;;;15.50;99.90;;;;;;4992321;28;20042;-52
2021/11/17 11:18:04;;;;;;;79.75;49.22;;;15.40;99.90;;;;;;4969887;28;20455;-51
2021/11/17 11:20:50;;;;;;;83.53;52.42;;;14.90;99.90;;;;;;4991168;28;20074;-51
2021/11/17 11:23:32;;;;;;;82.18;54.55;;;15.20;99.90;;;;;;4960143;28;20050;-51
2021/11/17 11:26:13;;;;;;;90.38;58.10;;;15.80;99.90;;;;;;4960267;28;20049;-51
2021/11/17 11:28:47;;;;;;;89.13;57.45;;;15.00;99.90;;;;;;4992594;28;20069;-51
2021/11/17 11:31:13;;;;;;;85.53;54.95;;;15.80;99.90;;;;;;4992797;28;20030;-51
2021/11/17 11:34:13;;;;;;;90.10;58.35;;;15.00;99.90;;;;;;4990934;28;20069;-51
2021/11/17 11:36:44;;;;;;;94.35;61.95;;;15.00;99.90;;;;;;4986876;28;20068;-55
2021/11/17 11:39:10;;;;;;;97.63;57.65;;;15.70;99.90;;;;;;4985676;28;20096;-54
2021/11/17 11:42:05;;;;;;;86.78;55.38;;;16.00;99.90;;;;;;5026232;28;20463;-51
2021/11/17 11:44:36;;;;;;;92.03;58.15;;;16.30;99.90;;;;;;5014441;28;20045;-51
2021/11/17 11:47:02;;;;;;;91.18;56.65;;;16.30;99.90;;;;;;4995907;28;20053;-51
2021/11/17 11:49:48;;;;;;;91.88;57.00;;;15.80;99.90;;;;;;5014454;28;20030;-51
2021/11/17 11:52:22;;;;;;;87.70;54.33;;;15.60;99.90;;;;;;5014748;28;20034;-51
2021/11/17 11:54:51;;;;;;;89.85;57.15;;;15.80;99.90;;;;;;5014245;28;20072;-51
2021/11/17 11:57:37;;;;;;;85.88;57.42;;;15.90;99.90;;;;;;5021919;28;20037;-52
2021/11/17 12:00:35;;;;;;;94.20;59.47;;;15.40;99.90;;;;;;5034082;28;20068;-51
2021/11/17 12:03:11;;;;;;;92.50;59.97;;;15.00;99.90;;;;;;4991913;28;20198;-51
2021/11/17 12:05:37;;;;;;;105.00;61.75;;;15.10;99.90;;;;;;4991945;28;20117;-52
2021/11/17 12:08:20;;;;;;;88.80;58.17;;;14.90;99.90;;;;;;4992107;28;20046;-52
2021/11/17 12:10:48;;;;;;;82.35;56.08;;;;;;;;;;4991879;28;20042;-51
2021/11/17 12:13:21;;;;;;;91.60;57.17;;;14.30;99.90;;;;;;4971856;28;20072;-52
2021/11/17 12:16:02;;;;;;;87.07;56.80;;;14.30;99.90;;;;;;4985778;28;20046;-51
2021/11/17 12:18:31;;;;;;;80.25;50.45;;;14.30;99.90;;;;;;4982236;28;20137;-51
2021/11/17 12:20:59;;;;;;;79.97;51.45;;;14.30;99.90;;;;;;4941879;28;20162;-52
2021/11/17 12:23:32;;;;;;;83.90;53.05;;;14.20;99.90;;;;;;4943956;29;20047;-51
2021/11/17 12:26:22;;;;;;;82.45;54.22;;;14.30;99.90;;;;;;4921419;29;20574;-50
2021/11/17 12:29:03;;;;;;;88.15;53.13;;;14.10;99.90;;;;;;4905275;29;20051;-51
2021/11/17 12:31:36;;;;;;;83.38;51.53;;;14.80;99.90;;;;;;4903663;29;20044;-49
2021/11/17 12:34:21;;;;;;;80.75;51.90;;;15.40;99.90;;;;;;4907975;29;20493;-50
2021/11/17 12:36:57;;;;;;;76.35;48.22;;;15.50;99.90;;;;;;4890226;29;20161;-51
2021/11/17 12:39:26;;;;;;;74.75;51.63;;;15.30;99.90;;;;;;4914150;29;20063;-50
2021/11/17 12:42:01;;;;;;;80.32;51.35;;;15.50;99.90;;;;;;4914340;29;20161;-51
2021/11/17 12:44:31;;;;;;;81.00;52.85;;;15.10;99.90;;;;;;4914597;29;20035;-50
2021/11/17 12:47:07;;;;;;;83.55;53.88;;;15.70;99.90;;;;;;4914354;29;20040;-50
2021/11/17 12:49:44;;;;;;;79.97;49.85;;;15.30;99.90;;;;;;4914420;29;20038;-51
2021/11/17 12:52:21;;;;;;;72.00;49.53;;;14.90;99.90;;;;;;4937178;29;20040;-51
2021/11/17 12:55:14;;;;;;;74.53;48.90;;;14.60;99.90;;;;;;4952119;29;20039;-50
2021/11/17 12:57:58;;;;;;;;;;;14.60;99.90;;;;;;4952798;29;20118;-50
2021/11/17 13:00:29;;;;;;;73.35;43.38;;;14.60;99.90;;;;;;4952474;29;19911;-50
2021/11/17 13:02:57;;;;;;;79.20;51.17;;;14.40;99.90;;;;;;4952223;29;20058;-50
2021/11/17 13:05:59;;;;;;;81.50;51.60;;;14.40;99.90;;;;;;4972220;28;20425;-50
2021/11/17 13:08:32;;;;;;;81.40;53.45;;;14.30;99.90;;;;;;5012895;28;20473;-51
2021/11/17 13:10:58;;;;;;;81.03;50.22;;;14.20;99.90;;;;;;4995100;28;20395;-51
2021/11/17 13:13:51;;;;;;;80.55;51.03;;;14.40;99.90;;;;;;5012917;28;20037;-50
2021/11/17 13:16:37;;;;;;;84.25;47.58;;;14.40;99.90;;;;;;4952024;29;20074;-50
2021/11/17 13:19:37;;;;;;;70.18;44.83;;;14.50;99.90;;;;;;4952094;29;20114;-51
2021/11/17 13:22:20;;;;;;;69.82;45.67;;;14.50;99.90;;;;;;4912289;28;20050;-49
2021/11/17 13:24:49;;;;;;;67.55;40.85;;;14.30;99.90;;;;;;4969068;28;20070;-52
2021/11/17 13:27:33;;;;;;;62.00;39.28;;;14.80;99.90;;;;;;4970263;28;20038;-51
2021/11/17 13:30:00;;;;;;;63.55;42.20;;;15.10;99.90;;;;;;4966721;28;20045;-51
2021/11/17 13:32:33;;;;;;;64.25;41.90;;;14.40;99.90;;;;;;4938959;28;20427;-51
2021/11/17 13:35:20;;;;;;;57.33;39.70;;;14.40;99.90;;;;;;4962718;28;20109;-51
2021/11/17 13:37:47;;;;;;;61.05;39.38;;;14.40;99.90;;;;;;4971035;28;20410;-50
2021/11/17 13:40:24;;;;;;;54.08;37.60;;;13.90;99.90;;;;;;4971052;28;20057;-52
2021/11/17 13:42:51;;;;;;;57.92;36.55;;;13.50;99.90;;;;;;4971189;28;20467;-50
2021/11/17 13:45:24;;;;;;;54.30;39.03;;;13.50;99.90;;;;;;4971383;28;20047;-51
2021/11/17 13:47:51;;;;;;;56.20;39.30;;;13.80;99.90;;;;;;4954907;28;20106;-51
2021/11/17 13:50:19;;;;;;;54.67;38.75;;;13.40;99.90;;;;;;4954852;28;20046;-50
2021/11/17 13:52:47;;;;;;;54.03;37.75;;;13.50;99.90;;;;;;4983130;28;20049;-51
2021/11/17 13:55:19;;;;;;;55.67;39.40;;;13.60;99.90;;;;;;5012252;28;20040;-51
2021/11/17 13:57:46;;;;;;;64.22;43.30;;;13.40;99.90;;;;;;5012135;28;20096;-51
2021/11/17 14:00:14;;;;;;;67.40;44.13;;;13.60;99.90;;;;;;4992398;28;20038;-50
2021/11/17 14:02:42;;;;;;;63.35;44.63;;;13.50;99.90;;;;;;5011267;28;20481;-51
2021/11/17 14:05:08;;;;;;;91.05;56.58;;;13.60;99.90;;;;;;5011228;28;20501;-50
2021/11/17 14:07:34;;;;;;;86.32;57.22;;;13.60;99.90;;;;;;5011319;28;20088;-51
2021/11/17 14:10:03;;;;;;;69.03;45.60;;;13.90;99.90;;;;;;5011468;28;20537;-51
2021/11/17 14:12:29;;;;;;;74.75;47.88;;;13.60;99.90;;;;;;4976383;28;20038;-51
2021/11/17 14:14:55;;;;;;;101.88;67.15;;;13.80;99.90;;;;;;4992661;28;20076;-51
2021/11/17 14:17:20;;;;;;;121.68;80.22;;;13.70;99.90;;;;;;5011120;28;20065;-52
2021/11/17 14:19:46;;;;;;;71.85;48.55;;;13.40;99.90;;;;;;5022346;28;20041;-51
2021/11/17 14:22:12;;;;;;;80.85;52.00;;;13.20;99.90;;;;;;5039102;28;20024;-51
2021/11/17 14:24:38;;;;;;;89.53;57.13;;;13.10;99.90;;;;;;5030217;28;20481;-50
2021/11/17 14:27:07;;;;;;;96.18;61.80;;;12.80;99.90;;;;;;5009853;28;20048;-50
2021/11/17 14:29:44;;;;;;;99.50;60.63;;;12.60;99.90;;;;;;5038150;28;20040;-49
2021/11/17 14:32:18;;;;;;;94.07;56.75;;;12.30;99.90;;;;;;5037851;28;20037;-50
2021/11/17 14:34:44;;;;;;;100.47;60.80;;;12.10;99.90;;;;;;5050455;28;20033;-50
2021/11/17 14:37:10;;;;;;;92.88;56.53;;;12.10;99.90;;;;;;4995218;28;20068;-50
2021/11/17 14:39:41;;;;;;;98.30;55.30;;;11.70;99.90;;;;;;5039020;28;20089;-50
2021/11/17 14:42:10;;;;;;;99.25;59.65;;;11.70;99.90;;;;;;5058816;28;20040;-50
2021/11/17 14:44:36;;;;;;;99.07;58.85;;;11.50;99.90;;;;;;5008552;28;20046;-49
2021/11/17 14:47:04;;;;;;;101.68;59.63;;;11.40;99.90;;;;;;4992132;28;20046;-49
2021/11/17 14:49:31;;;;;;;115.95;64.63;;;11.30;99.90;;;;;;4992140;28;20050;-49
2021/11/17 14:52:03;;;;;;;115.68;67.00;;;11.30;99.90;;;;;;4992185;28;20041;-50
2021/11/17 14:54:29;;;;;;;117.22;70.45;;;11.40;99.90;;;;;;4935349;28;20177;-50
2021/11/17 14:56:55;;;;;;;115.47;67.75;;;11.40;99.90;;;;;;4971471;28;20047;-49
2021/11/17 14:59:21;;;;;;;116.13;69.13;;;11.40;99.90;;;;;;4971267;28;20046;-49
2021/11/17 15:01:47;;;;;;;114.85;67.88;;;11.40;99.90;;;;;;4971808;28;20086;-49
2021/11/17 15:04:13;;;;;;;118.05;66.47;;;11.30;99.90;;;;;;4971635;28;20070;-50
2021/11/17 15:06:41;;;;;;;127.03;73.28;;;11.10;99.90;;;;;;4969937;28;20485;-49
2021/11/17 15:09:09;;;;;;;125.10;73.95;;;11.00;99.90;;;;;;4954731;28;20118;-50
2021/11/17 15:11:49;;;;;;;127.38;70.55;;;10.80;99.90;;;;;;4969960;28;20049;-49
2021/11/17 15:14:15;;;;;;;105.60;55.47;;;10.50;99.90;;;;;;4952844;28;20042;-50
2021/11/17 15:16:44;;;;;;;124.85;71.05;;;9.90;99.90;;;;;;5002851;28;20065;-48
2021/11/17 15:19:09;;;;;;;125.88;72.03;;;9.80;99.90;;;;;;5005389;28;20072;-52
2021/11/17 15:21:36;;;;;;;117.38;66.28;;;9.70;99.90;;;;;;5008999;28;20073;-54
2021/11/17 15:24:03;;;;;;;124.75;73.13;;;9.30;99.90;;;;;;5010250;28;20029;-52
2021/11/17 15:26:29;;;;;;;119.35;70.18;;;9.00;99.90;;;;;;4987954;28;20044;-52
2021/11/17 15:28:59;;;;;;;143.15;79.90;;;8.90;99.90;;;;;;5041937;28;20028;-49
2021/11/17 15:31:28;;;;;;;135.65;74.03;;;9.00;99.90;;;;;;5035380;28;20017;-51
2021/11/17 15:33:54;;;;;;;143.95;75.28;;;8.90;99.90;;;;;;5023985;28;20477;-52
2021/11/17 15:36:21;;;;;;;139.25;71.18;;;8.80;99.90;;;;;;5041402;28;20068;-51
2021/11/17 15:38:49;;;;;;;134.73;73.43;;;8.90;99.90;;;;;;5036810;28;20037;-50
2021/11/17 15:41:18;;;;;;;160.88;85.70;;;8.70;99.90;;;;;;5042587;28;20033;-54
2021/11/17 15:43:46;;;;;;;144.73;79.20;;;8.60;99.90;;;;;;5043128;28;20043;-53
2021/11/17 15:46:12;;;;;;;160.27;82.85;;;8.50;99.90;;;;;;5032657;28;20776;-51